Terminal Aerodrome Forecast
Issued by NWS

Home | Current Version | Previous Version | Text Only | Print | Product List | Glossary On
Versions: 1 2 3 4 5 6 7 8 9 10 11 12 13 14 15 16 17 18 19 20 21 22
213
FTPA31 PHFO 032320
TAFHTO
TAF
PHTO 032320Z 0400/0424 14008KT 6SM -SHRA SCT025 BKN045
      TEMPO 0400/0404 3SM SHRA BR BKN020 OVC030
     FM040500 24005KT P6SM VCSH SCT025 BKN045
     FM042000 14008KT P6SM VCSH SCT025 BKN045=

USA.gov is the U.S. government's official web portal to all federal, state and local government web resources and services.